createdAt,value
2022-08-16T00:01:14.256Z,100562.03
2022-08-16T00:03:41.037Z,100567.38
2022-08-16T00:06:08.044Z,100562.03
2022-08-16T00:08:37.662Z,100573.78
2022-08-16T00:11:15.903Z,100573.56
2022-08-16T00:13:53.432Z,100565.72
2022-08-16T00:17:11.951Z,100568.41
2022-08-16T00:19:14.172Z,100568.41
2022-08-16T00:21:41.630Z,100566.75
2022-08-16T00:24:11.598Z,100573.78
2022-08-16T00:26:44.963Z,100576.44
2022-08-16T00:29:15.379Z,100574.78
2022-08-16T00:31:59.652Z,100573.13
2022-08-16T00:34:45.193Z,100576.81
2022-08-16T00:37:18.557Z,100583.84
2022-08-16T00:39:47.871Z,100573.13
2022-08-16T00:42:31.614Z,100583.84
2022-08-16T00:45:35.483Z,100583.22
2022-08-16T00:48:31.347Z,100580.53
2022-08-16T00:50:55.379Z,100579.69
2022-08-16T00:53:22.402Z,100581.50
2022-08-16T00:55:52.607Z,100581.50
2022-08-16T00:58:34.411Z,100582.53
2022-08-16T01:01:02.191Z,100587.06
2022-08-16T01:03:30.382Z,100584.56
2022-08-16T01:05:59.145Z,100577.56
2022-08-16T01:08:36.219Z,100579.22
2022-08-16T01:11:05.298Z,100587.44
2022-08-16T01:13:35.763Z,100582.91
2022-08-16T01:16:19.812Z,100577.56
2022-08-16T01:18:55.065Z,100574.25
2022-08-16T01:21:33.943Z,100575.91
2022-08-16T01:24:53.418Z,100582.28
2022-08-16T01:27:48.711Z,100579.94
2022-08-16T01:30:26.516Z,100577.28
2022-08-16T01:33:01.933Z,100574.59
2022-08-16T01:35:52.780Z,100575.59
2022-08-16T01:38:49.075Z,100579.31
2022-08-16T01:41:29.826Z,100577.47
2022-08-16T01:43:57.214Z,100590.66
2022-08-16T01:46:40.259Z,100584.66
2022-08-16T01:49:15.524Z,100593.53
2022-08-16T01:51:44.672Z,100592.69
2022-08-16T01:54:13.462Z,100596.41
2022-08-16T01:56:43.172Z,100595.38
2022-08-16T01:59:16.005Z,100584.84
2022-08-16T02:01:49.626Z,100589.38
2022-08-16T02:04:40.043Z,100586.69
2022-08-16T02:07:08.961Z,100590.41
2022-08-16T02:09:40.249Z,100593.09
2022-08-16T02:12:42.136Z,100586.84
2022-08-16T02:14:56.028Z,100591.38
2022-08-16T02:17:24.476Z,100594.06
2022-08-16T02:20:00.037Z,100586.84
2022-08-16T02:22:34.798Z,100595.09
2022-08-16T02:25:11.084Z,100587.50
2022-08-16T02:27:41.330Z,100590.09
2022-08-16T02:30:37.644Z,100594.44
2022-08-16T02:33:03.443Z,100591.75
2022-08-16T02:35:31.106Z,100584.75
2022-08-16T02:38:01.803Z,100582.91
2022-08-16T02:40:36.363Z,100579.38
2022-08-16T02:43:04.478Z,100577.72
2022-08-16T02:45:32.519Z,100572.38
2022-08-16T02:48:01.512Z,100579.38
2022-08-16T02:50:53.707Z,100574.38
2022-08-16T02:53:30.455Z,100574.38
2022-08-16T02:55:57.257Z,100574.38
2022-08-16T02:58:24.824Z,100575.22
2022-08-16T03:00:52.703Z,100577.88
2022-08-16T03:03:19.602Z,100578.06
2022-08-16T03:05:52.274Z,100583.44
2022-08-16T03:08:49.645Z,100583.44
2022-08-16T03:11:16.894Z,100579.09
2022-08-16T03:13:55.749Z,100576.41
2022-08-16T03:16:32.971Z,100581.78
2022-08-16T03:19:07.375Z,100569.41
2022-08-16T03:21:38.024Z,100566.72
2022-08-16T03:24:29.127Z,100574.75
2022-08-16T03:26:58.042Z,100581.78
2022-08-16T03:29:30.074Z,100574.75
2022-08-16T03:32:01.426Z,100567.53
2022-08-16T03:34:30.589Z,100582.78
2022-08-16T03:36:57.670Z,100576.59
2022-08-16T03:39:25.087Z,100576.78
2022-08-16T03:41:59.580Z,100581.31
2022-08-16T03:44:40.728Z,100578.66
2022-08-16T03:47:18.965Z,100584.97
2022-08-16T03:49:48.143Z,100583.16
2022-08-16T03:52:20.286Z,100580.50
2022-08-16T03:54:58.139Z,100585.19
2022-08-16T03:57:32.221Z,100596.72
2022-08-16T04:00:20.235Z,100603.94
2022-08-16T04:03:08.501Z,100602.25
2022-08-16T04:05:44.263Z,100603.09
2022-08-16T04:08:22.990Z,100605.97
2022-08-16T04:10:52.015Z,100600.59
2022-08-16T04:13:20.334Z,100604.31
2022-08-16T04:15:48.169Z,100611.31
2022-08-16T04:18:20.130Z,100609.66
2022-08-16T04:20:49.041Z,100619.53
2022-08-16T04:23:16.596Z,100621.38
2022-08-16T04:25:43.601Z,100622.41
2022-08-16T04:28:51.621Z,100628.41
2022-08-16T04:31:00.742Z,100619.88
2022-08-16T04:33:29.477Z,100627.75
2022-08-16T04:36:01.775Z,100631.44
2022-08-16T04:38:31.539Z,100627.91
2022-08-16T04:40:58.320Z,100623.56
2022-08-16T04:43:25.290Z,100615.53
2022-08-16T04:45:59.935Z,100611.00
2022-08-16T04:48:32.601Z,100615.72
2022-08-16T04:51:07.978Z,100613.69
2022-08-16T04:53:41.307Z,100621.09
2022-08-16T04:56:11.541Z,100626.44
2022-08-16T04:58:46.110Z,100633.66
2022-08-16T05:01:13.787Z,100641.69
2022-08-16T05:03:59.976Z,100630.97
2022-08-16T05:06:45.200Z,100633.84
2022-08-16T05:09:12.766Z,100634.66
2022-08-16T05:11:39.508Z,100638.16
2022-08-16T05:14:07.290Z,100640.84
2022-08-16T05:16:34.136Z,100645.38
2022-08-16T05:19:02.413Z,100640.84
2022-08-16T05:21:37.987Z,100639.19
2022-08-16T05:24:06.264Z,100649.91
2022-08-16T05:26:33.998Z,100652.72
2022-08-16T05:29:03.670Z,100656.28
2022-08-16T05:31:31.861Z,100660.63
2022-08-16T05:34:00.321Z,100655.25
2022-08-16T05:36:34.311Z,100657.94
2022-08-16T05:39:09.399Z,100660.63
2022-08-16T05:41:45.422Z,100658.94
2022-08-16T05:44:23.576Z,100659.09
2022-08-16T05:46:56.262Z,100658.94
2022-08-16T05:49:23.934Z,100659.78
2022-08-16T05:51:50.971Z,100657.25
2022-08-16T05:54:25.234Z,100662.63
2022-08-16T05:56:53.479Z,100669.66
2022-08-16T05:59:22.148Z,100675.03
2022-08-16T06:01:50.795Z,100673.19
2022-08-16T06:04:36.644Z,100671.31
2022-08-16T06:07:08.943Z,100675.66
2022-08-16T06:09:43.838Z,100678.34
2022-08-16T06:12:26.391Z,100679.81
2022-08-16T06:14:59.814Z,100681.03
2022-08-16T06:17:41.127Z,100680.38
2022-08-16T06:20:11.519Z,100676.47
2022-08-16T06:22:40.002Z,100680.66
2022-08-16T06:25:07.283Z,100680.53
2022-08-16T06:27:39.724Z,100681.25
2022-08-16T06:30:10.057Z,100682.91
2022-08-16T06:32:43.126Z,100678.75
2022-08-16T06:35:15.923Z,100678.25
2022-08-16T06:37:47.019Z,100688.25
2022-08-16T06:40:18.100Z,100688.56
2022-08-16T06:42:47.544Z,100694.25
2022-08-16T06:45:15.401Z,100693.88
2022-08-16T06:47:52.958Z,100700.56
2022-08-16T06:50:22.241Z,100696.88
2022-08-16T06:53:00.060Z,100691.16
2022-08-16T06:55:32.198Z,100683.78
2022-08-16T06:58:01.815Z,100684.44
2022-08-16T07:00:35.801Z,100686.09
2022-08-16T07:03:28.337Z,100691.63
2022-08-16T07:05:53.883Z,100694.13
2022-08-16T07:08:21.071Z,100696.81
2022-08-16T07:10:48.005Z,100692.09
2022-08-16T07:13:26.557Z,100697.16
2022-08-16T07:16:02.313Z,100691.44
2022-08-16T07:18:29.011Z,100696.44
2022-08-16T07:21:01.729Z,100700.59
2022-08-16T07:23:36.931Z,100700.41
2022-08-16T07:26:08.155Z,100704.41
2022-08-16T07:28:35.598Z,100706.09
2022-08-16T07:31:03.438Z,100714.78
2022-08-16T07:33:53.151Z,100712.72
2022-08-16T07:36:22.717Z,100723.13
2022-08-16T07:38:50.255Z,100724.78
2022-08-16T07:41:17.503Z,100732.63
2022-08-16T07:43:47.552Z,100729.75
2022-08-16T07:46:39.233Z,100722.41
2022-08-16T07:49:04.560Z,100727.38
2022-08-16T07:51:38.136Z,100728.03
2022-08-16T07:54:10.096Z,100731.41
2022-08-16T07:56:38.430Z,100735.72
2022-08-16T07:59:06.344Z,100737.41
2022-08-16T08:01:34.838Z,100728.34
2022-08-16T08:04:03.430Z,100726.31
2022-08-16T08:06:31.812Z,100732.88
2022-08-16T08:08:59.134Z,100731.22
2022-08-16T08:11:28.092Z,100727.69
2022-08-16T08:13:55.285Z,100732.03
2022-08-16T08:16:30.680Z,100735.38
2022-08-16T08:19:00.982Z,100738.03
2022-08-16T08:21:59.667Z,100747.75
2022-08-16T08:24:21.436Z,100743.41
2022-08-16T08:26:50.045Z,100749.41
2022-08-16T08:29:23.186Z,100746.72
2022-08-16T08:32:04.616Z,100758.47
2022-08-16T08:34:51.300Z,100753.09
2022-08-16T08:37:17.990Z,100749.41
2022-08-16T08:39:54.566Z,100754.75
2022-08-16T08:42:26.756Z,100756.81
2022-08-16T08:44:54.787Z,100760.13
2022-08-16T08:47:21.447Z,100760.81
2022-08-16T08:49:55.499Z,100756.47
2022-08-16T08:52:34.217Z,100752.75
2022-08-16T08:55:09.287Z,100763.47
2022-08-16T08:57:40.594Z,100768.00
2022-08-16T09:00:13.301Z,100768.84
2022-08-16T09:02:44.552Z,100768.84
2022-08-16T09:05:16.734Z,100772.53
2022-08-16T09:08:00.386Z,100772.53
2022-08-16T09:10:30.000Z,100773.72
2022-08-16T09:12:57.889Z,100760.13
2022-08-16T09:15:26.499Z,100756.47
2022-08-16T09:18:00.271Z,100768.00
2022-08-16T09:20:30.394Z,100769.84
2022-08-16T09:22:58.034Z,100774.19
2022-08-16T09:25:34.287Z,100771.53
2022-08-16T09:28:08.932Z,100780.22
2022-08-16T09:30:44.250Z,100786.59
2022-08-16T09:33:13.645Z,100779.91
2022-08-16T09:35:42.789Z,100779.06
2022-08-16T09:38:12.396Z,100788.97
2022-08-16T09:40:58.759Z,100783.97
2022-08-16T09:43:58.280Z,100788.50
2022-08-16T09:46:45.335Z,100776.69
2022-08-16T09:48:59.353Z,100782.63
2022-08-16T09:51:36.864Z,100788.00
2022-08-16T09:54:04.748Z,100775.63
2022-08-16T09:56:34.849Z,100789.66
2022-08-16T09:59:07.327Z,100784.31
2022-08-16T10:01:43.661Z,100782.31
2022-08-16T10:04:32.975Z,100787.66
2022-08-16T10:09:54.683Z,100794.03
2022-08-16T10:12:43.253Z,100791.34
2022-08-16T10:15:15.499Z,100780.63
2022-08-16T10:17:42.882Z,100784.31
2022-08-16T10:20:13.715Z,100787.66
2022-08-16T10:22:45.726Z,100784.97
2022-08-16T10:27:19.127Z,100783.97
2022-08-16T10:28:26.137Z,100786.66
2022-08-16T10:30:47.333Z,100792.06
2022-08-16T10:33:22.967Z,100785.25
2022-08-16T10:35:49.654Z,100788.63
2022-08-16T10:38:27.201Z,100788.63
2022-08-16T10:40:54.838Z,100790.28
2022-08-16T10:43:21.620Z,100784.91
2022-08-16T10:46:00.413Z,100780.56
2022-08-16T10:48:29.164Z,100789.91
2022-08-16T10:50:58.983Z,100783.91
2022-08-16T10:53:32.762Z,100793.59
2022-08-16T10:56:50.446Z,100787.78
2022-08-16T10:59:32.395Z,100792.66
2022-08-16T11:02:21.702Z,100797.19
2022-08-16T11:11:04.972Z,100801.13
2022-08-16T11:12:52.622Z,100811.41
2022-08-16T11:15:20.501Z,100805.69
2022-08-16T11:18:48.437Z,100802.03
2022-08-16T11:20:42.292Z,100804.50
2022-08-16T11:23:10.165Z,100803.50
2022-08-16T11:31:11.573Z,100809.50
2022-08-16T11:33:55.639Z,100816.38
2022-08-16T11:36:27.459Z,100808.16
2022-08-16T11:38:57.264Z,100810.66
2022-08-16T11:41:25.202Z,100813.97
2022-08-16T11:43:56.008Z,100815.63
2022-08-16T11:46:43.351Z,100819.81
2022-08-16T11:49:13.394Z,100816.31
2022-08-16T11:51:44.197Z,100822.31
2022-08-16T11:54:20.144Z,100814.94
2022-08-16T11:56:53.022Z,100814.09
2022-08-16T11:59:28.514Z,100814.94
2022-08-16T12:01:59.669Z,100815.94
2022-08-16T12:04:27.589Z,100809.56
2022-08-16T12:06:54.730Z,100814.59
2022-08-16T12:09:22.248Z,100810.91
2022-08-16T12:11:52.555Z,100817.94
2022-08-16T12:14:22.913Z,100822.28
2022-08-16T12:16:55.655Z,100809.72
2022-08-16T12:19:35.406Z,100815.09
2022-08-16T12:22:05.386Z,100814.25
2022-08-16T12:24:45.210Z,100824.78
2022-08-16T12:27:18.244Z,100818.44
2022-08-16T12:29:44.917Z,100812.22
2022-08-16T12:32:37.733Z,100812.06
2022-08-16T12:34:58.718Z,100818.44
2022-08-16T12:37:26.288Z,100822.59
2022-08-16T12:40:07.275Z,100813.53
2022-08-16T12:42:54.404Z,100818.25
2022-08-16T12:45:22.690Z,100813.53
2022-08-16T12:48:32.917Z,100820.56
2022-08-16T12:50:56.982Z,100809.84
2022-08-16T12:53:24.799Z,100807.16
2022-08-16T12:55:52.863Z,100813.16
2022-08-16T12:58:47.401Z,100807.81
2022-08-16T13:01:08.242Z,100818.53
2022-08-16T13:03:40.567Z,100818.38
2022-08-16T13:06:08.172Z,100811.16
2022-08-16T13:08:35.007Z,100810.31
2022-08-16T13:11:07.639Z,100805.59
2022-08-16T13:13:35.541Z,100805.41
2022-08-16T13:16:10.783Z,100815.13
2022-08-16T13:18:42.949Z,100817.81
2022-08-16T13:21:10.675Z,100824.84
2022-08-16T13:23:43.255Z,100813.13
2022-08-16T13:26:11.134Z,100823.84
2022-08-16T13:28:37.830Z,100812.94
2022-08-16T13:31:04.577Z,100810.06
2022-08-16T13:33:37.907Z,100807.38
2022-08-16T13:36:17.002Z,100800.16
2022-08-16T13:38:52.994Z,100801.00
2022-08-16T13:41:21.073Z,100810.72
2022-08-16T13:43:55.159Z,100807.88
2022-08-16T13:46:26.494Z,100803.34
2022-08-16T13:48:53.423Z,100807.69
2022-08-16T13:51:20.806Z,100813.69
2022-08-16T13:53:54.279Z,100816.38
2022-08-16T13:56:26.062Z,100820.91
2022-08-16T13:59:04.511Z,100817.41
2022-08-16T14:01:33.134Z,100806.47
2022-08-16T14:04:03.662Z,100799.25
2022-08-16T14:06:31.350Z,100801.94
2022-08-16T14:09:06.093Z,100801.94
2022-08-16T14:11:34.271Z,100806.47
2022-08-16T14:14:02.017Z,100805.66
2022-08-16T14:16:33.901Z,100811.00
2022-08-16T14:19:02.125Z,100808.34
2022-08-16T14:21:34.725Z,100810.63
2022-08-16T14:24:03.183Z,100806.13
2022-08-16T14:26:40.368Z,100806.97
2022-08-16T14:29:10.807Z,100808.63
2022-08-16T14:31:39.668Z,100801.59
2022-08-16T14:34:07.780Z,100801.41
2022-08-16T14:36:38.079Z,100801.88
2022-08-16T14:39:08.879Z,100789.28
2022-08-16T14:41:35.593Z,100792.66
2022-08-16T14:44:07.183Z,100797.81
2022-08-16T14:46:36.039Z,100795.13
2022-08-16T14:49:02.797Z,100799.28
2022-08-16T14:51:50.345Z,100800.81
2022-08-16T14:54:30.395Z,100793.56
2022-08-16T14:57:00.067Z,100802.47
2022-08-16T14:59:27.223Z,100798.94
2022-08-16T15:01:58.650Z,100798.75
2022-08-16T15:04:39.319Z,100796.06
2022-08-16T15:07:10.177Z,100797.75
2022-08-16T15:09:44.844Z,100802.91
2022-08-16T15:12:32.702Z,100803.75
2022-08-16T15:15:00.166Z,100800.03
2022-08-16T15:17:34.028Z,100804.41
2022-08-16T15:20:09.327Z,100802.56
2022-08-16T15:22:43.015Z,100802.38
2022-08-16T15:25:30.027Z,100804.03
2022-08-16T15:27:58.303Z,100802.19
2022-08-16T15:30:58.484Z,100794.97
2022-08-16T15:33:19.613Z,100797.31
2022-08-16T15:35:49.059Z,100807.84
2022-08-16T15:38:54.906Z,100812.38
2022-08-16T15:41:03.374Z,100808.69
2022-08-16T15:43:39.161Z,100814.03
2022-08-16T15:46:34.912Z,100808.69
2022-08-16T15:49:09.768Z,100814.03
2022-08-16T15:51:39.364Z,100814.88
2022-08-16T15:54:29.264Z,100811.19
2022-08-16T15:56:55.424Z,100807.09
2022-08-16T15:59:26.955Z,100814.72
2022-08-16T16:01:58.287Z,100806.66
2022-08-16T16:04:28.607Z,100802.97
2022-08-16T16:06:56.769Z,100810.00
2022-08-16T16:09:36.598Z,100789.38
2022-08-16T16:12:34.143Z,100792.50
2022-08-16T16:14:52.980Z,100795.19
2022-08-16T16:17:19.648Z,100795.00
2022-08-16T16:19:49.777Z,100795.84
2022-08-16T16:22:21.736Z,100795.84
2022-08-16T16:24:52.124Z,100796.88
2022-08-16T16:27:18.889Z,100801.22
2022-08-16T16:29:57.815Z,100795.00
2022-08-16T16:32:34.416Z,100796.88
2022-08-16T16:35:06.197Z,100796.88
2022-08-16T16:37:33.426Z,100795.19
2022-08-16T16:40:00.401Z,100791.50
2022-08-16T16:42:30.312Z,100796.88
2022-08-16T16:45:01.641Z,100786.13
2022-08-16T16:47:41.764Z,100786.13
2022-08-16T16:50:13.080Z,100791.50
2022-08-16T16:52:43.980Z,100786.13
2022-08-16T16:55:13.104Z,100788.81
2022-08-16T16:58:00.327Z,100787.16
2022-08-16T17:00:37.599Z,100791.50
2022-08-16T17:03:06.023Z,100789.09
2022-08-16T17:05:56.883Z,100789.94
2022-08-16T17:08:28.803Z,100782.72
2022-08-16T17:10:55.859Z,100783.34
2022-08-16T17:13:24.556Z,100774.66
2022-08-16T17:15:52.652Z,100774.66
2022-08-16T17:19:17.094Z,100782.72
2022-08-16T17:21:07.832Z,100782.06
2022-08-16T17:23:59.420Z,100781.88
2022-08-16T17:26:23.078Z,100781.03
2022-08-16T17:29:02.453Z,100775.69
2022-08-16T17:31:38.501Z,100773.00
2022-08-16T17:34:30.546Z,100763.28
2022-08-16T17:36:59.780Z,100772.81
2022-08-16T17:39:29.539Z,100775.69
2022-08-16T17:42:01.054Z,100774.84
2022-08-16T17:44:28.804Z,100777.53
2022-08-16T17:46:55.532Z,100777.53
2022-08-16T17:49:22.299Z,100765.97
2022-08-16T17:51:49.255Z,100773.81
2022-08-16T17:54:20.537Z,100775.69
2022-08-16T17:57:01.316Z,100775.69
2022-08-16T17:59:28.946Z,100775.69
2022-08-16T18:01:56.420Z,100786.41
2022-08-16T18:04:49.734Z,100779.00
2022-08-16T18:07:10.518Z,100775.50
2022-08-16T18:09:40.781Z,100781.88
2022-08-16T18:12:44.546Z,100782.72
2022-08-16T18:15:08.959Z,100782.91
2022-08-16T18:17:36.117Z,100784.56
2022-08-16T18:20:04.082Z,100778.38
2022-08-16T18:22:32.328Z,100782.06
2022-08-16T18:24:59.168Z,100783.72
2022-08-16T18:27:27.449Z,100792.81
2022-08-16T18:29:55.148Z,100789.09
2022-08-16T18:32:24.764Z,100790.75
2022-08-16T18:34:54.249Z,100792.81
2022-08-16T18:37:22.825Z,100802.53
2022-08-16T18:39:49.562Z,100801.50
2022-08-16T18:42:16.441Z,100808.53
2022-08-16T18:44:44.674Z,100809.34
2022-08-16T18:47:11.414Z,100812.22
2022-08-16T18:49:38.552Z,100819.25
2022-08-16T18:52:05.601Z,100822.78
2022-08-16T18:55:03.146Z,100825.66
2022-08-16T18:57:21.008Z,100832.03
2022-08-16T18:59:47.746Z,100825.84
2022-08-16T19:02:56.177Z,100821.31
2022-08-16T19:05:24.552Z,100828.72
2022-08-16T19:07:51.367Z,100829.06
2022-08-16T19:10:19.194Z,100829.44
2022-08-16T19:12:45.898Z,100828.78
2022-08-16T19:15:16.443Z,100836.81
2022-08-16T19:17:44.861Z,100840.53
2022-08-16T19:20:12.852Z,100853.94
2022-08-16T19:23:02.097Z,100856.63
2022-08-16T19:25:48.552Z,100864.88
2022-08-16T19:28:50.044Z,100871.06
2022-08-16T19:31:19.428Z,100875.59
2022-08-16T19:33:54.092Z,100872.75
2022-08-16T19:36:30.938Z,100884.50
2022-08-16T19:39:04.626Z,100888.84
2022-08-16T19:41:32.941Z,100888.84
2022-08-16T19:43:59.616Z,100876.44
2022-08-16T19:46:26.352Z,100897.09
2022-08-16T19:48:53.219Z,100893.56
2022-08-16T19:51:19.915Z,100902.44
2022-08-16T19:53:46.649Z,100906.97
2022-08-16T19:56:13.414Z,100904.94
2022-08-16T19:58:56.087Z,100899.91
2022-08-16T20:01:26.839Z,100892.88
2022-08-16T20:03:53.516Z,100900.59
2022-08-16T20:06:34.856Z,100908.66
2022-08-16T20:09:05.388Z,100894.41
2022-08-16T20:11:32.114Z,100902.44
2022-08-16T20:13:59.524Z,100894.22
2022-08-16T20:16:26.428Z,100888.84
2022-08-16T20:18:53.172Z,100890.50
2022-08-16T20:21:19.909Z,100876.09
2022-08-16T20:23:46.779Z,100874.41
2022-08-16T20:26:22.687Z,100877.75
2022-08-16T20:28:54.632Z,100877.09
2022-08-16T20:31:25.903Z,100891.19
2022-08-16T20:33:53.495Z,100888.50
2022-08-16T20:36:21.823Z,100888.50
2022-08-16T20:38:50.024Z,100887.66
2022-08-16T20:41:17.071Z,100883.13
2022-08-16T20:43:45.563Z,100881.28
2022-08-16T20:46:13.704Z,100880.44
2022-08-16T20:48:40.385Z,100884.78
2022-08-16T20:51:10.678Z,100893.03
2022-08-16T20:53:41.217Z,100894.69
2022-08-16T20:56:08.733Z,100899.22
2022-08-16T20:58:35.435Z,100902.94
2022-08-16T21:01:03.658Z,100903.75
2022-08-16T21:03:30.782Z,100909.13
2022-08-16T21:06:02.304Z,100907.28
2022-08-16T21:08:52.593Z,100902.94
2022-08-16T21:11:16.486Z,100900.25
2022-08-16T21:13:46.409Z,100897.56
2022-08-16T21:16:17.262Z,100903.91
2022-08-16T21:18:44.037Z,100896.72
2022-08-16T21:21:12.211Z,100901.25
2022-08-16T21:23:39.076Z,100902.09
2022-08-16T21:26:10.685Z,100908.31
2022-08-16T21:28:41.621Z,100913.66
2022-08-16T21:31:13.620Z,100919.03
2022-08-16T21:33:41.014Z,100917.34
2022-08-16T21:36:08.226Z,100915.69
2022-08-16T21:38:35.201Z,100905.78
2022-08-16T21:41:03.698Z,100916.50
2022-08-16T21:43:33.049Z,100915.69
2022-08-16T21:46:01.412Z,100909.47
2022-08-16T21:48:35.122Z,100908.66
2022-08-16T21:51:11.156Z,100909.28
2022-08-16T21:53:38.166Z,100903.28
2022-08-16T21:56:05.515Z,100904.94
2022-08-16T21:58:32.327Z,100915.03
2022-08-16T22:01:00.231Z,100911.31
2022-08-16T22:03:26.968Z,100913.19
2022-08-16T22:06:02.428Z,100931.97
2022-08-16T22:08:47.849Z,100927.59
2022-08-16T22:11:22.190Z,100928.44
2022-08-16T22:13:58.031Z,100924.75
2022-08-16T22:16:32.888Z,100921.38
2022-08-16T22:19:00.280Z,100918.56
2022-08-16T22:21:27.081Z,100918.69
2022-08-16T22:23:58.700Z,100914.34
2022-08-16T22:26:36.802Z,100916.03
2022-08-16T22:29:09.781Z,100909.00
2022-08-16T22:31:37.694Z,100915.19
2022-08-16T22:34:04.892Z,100914.34
2022-08-16T22:36:33.007Z,100907.31
2022-08-16T22:39:02.081Z,100901.97
2022-08-16T22:41:32.025Z,100905.47
2022-08-16T22:43:59.358Z,100904.63
2022-08-16T22:46:26.199Z,100903.81
2022-08-16T22:48:53.033Z,100917.22
2022-08-16T22:51:21.549Z,100904.44
2022-08-16T22:53:48.603Z,100912.69
2022-08-16T22:56:16.055Z,100909.00
2022-08-16T22:58:42.986Z,100912.69
2022-08-16T23:01:12.924Z,100907.31
2022-08-16T23:03:40.586Z,100906.50
2022-08-16T23:06:07.508Z,100914.34
2022-08-16T23:08:38.932Z,100913.53
2022-08-16T23:11:07.953Z,100912.69
2022-08-16T23:13:34.713Z,100911.84
2022-08-16T23:16:11.157Z,100907.31
2022-08-16T23:18:40.032Z,100904.78
2022-08-16T23:21:09.252Z,100909.34
2022-08-16T23:23:37.189Z,100903.97
2022-08-16T23:26:46.654Z,100906.50
2022-08-16T23:28:51.136Z,100899.63
2022-08-16T23:31:18.016Z,100913.88
2022-08-16T23:33:46.071Z,100907.66
2022-08-16T23:36:12.782Z,100913.03
2022-08-16T23:38:48.666Z,100909.34
2022-08-16T23:41:15.822Z,100906.19
2022-08-16T23:43:43.719Z,100908.69
2022-08-16T23:46:14.028Z,100899.81
2022-08-16T23:49:56.346Z,100899.81
2022-08-16T23:51:29.100Z,100890.09
2022-08-16T23:53:56.162Z,100896.28
2022-08-16T23:56:23.003Z,100886.56
2022-08-16T23:58:52.598Z,100887.41
